TimeCST,TemperatureF,Dew PointF,Humidity,Sea Level PressureIn,VisibilityMPH,Wind Direction,Wind SpeedMPH,Gust SpeedMPH,PrecipitationIn,Events,Conditions,WindDirDegrees,DateUTC
12:23 AM,44.6,42.8,93,30.16,3.0,North,11.5,-,0.01,,Overcast,350,2012-11-27 06:23:00
12:53 AM,43.0,41.0,93,30.17,6.0,NNW,12.7,21.9,0.01,,Overcast,340,2012-11-27 06:53:00
1:53 AM,42.1,39.9,92,30.17,7.0,North,12.7,-,0.04,Rain,Light Rain,10,2012-11-27 07:53:00
2:13 AM,42.8,39.2,87,30.19,8.0,North,10.4,-,0.02,Rain,Light Rain,360,2012-11-27 08:13:00
2:53 AM,43.0,39.9,89,30.20,8.0,North,10.4,-,0.02,,Overcast,360,2012-11-27 08:53:00
3:53 AM,42.1,39.0,89,30.21,7.0,North,10.4,-,N/A,,Overcast,360,2012-11-27 09:53:00
4:53 AM,41.0,37.0,86,30.22,7.0,North,13.8,21.9,N/A,,Overcast,10,2012-11-27 10:53:00
5:53 AM,41.0,37.0,86,30.23,6.0,North,12.7,-,N/A,,Overcast,360,2012-11-27 11:53:00
6:53 AM,41.0,37.0,86,30.26,6.0,North,11.5,-,N/A,,Overcast,10,2012-11-27 12:53:00
7:53 AM,41.0,37.0,86,30.29,6.0,North,12.7,-,N/A,,Overcast,10,2012-11-27 13:53:00
8:53 AM,41.0,36.0,82,30.32,6.0,NNE,13.8,-,N/A,,Haze,20,2012-11-27 14:53:00
9:53 AM,41.0,36.0,82,30.34,6.0,North,10.4,-,N/A,,Haze,360,2012-11-27 15:53:00
10:53 AM,41.0,36.0,82,30.33,6.0,North,10.4,-,N/A,,Haze,360,2012-11-27 16:53:00
11:53 AM,41.0,36.0,82,30.31,5.0,North,11.5,-,N/A,,Haze,360,2012-11-27 17:53:00
12:53 PM,41.0,35.1,79,30.30,6.0,North,8.1,-,N/A,,Haze,360,2012-11-27 18:53:00
1:53 PM,41.0,35.1,79,30.30,6.0,North,9.2,-,N/A,,Haze,360,2012-11-27 19:53:00
2:14 PM,41.0,33.8,76,30.29,7.0,NNW,9.2,-,N/A,,Overcast,340,2012-11-27 20:14:00
2:53 PM,39.9,34.0,79,30.31,7.0,North,10.4,-,N/A,,Overcast,350,2012-11-27 20:53:00
3:53 PM,39.9,33.1,77,30.33,8.0,North,9.2,-,N/A,,Overcast,350,2012-11-27 21:53:00
4:53 PM,39.9,32.0,73,30.34,10.0,North,8.1,-,N/A,,Overcast,360,2012-11-27 22:53:00
5:53 PM,39.0,32.0,76,30.35,10.0,North,4.6,-,N/A,,Overcast,360,2012-11-27 23:53:00
6:53 PM,39.0,32.0,76,30.37,10.0,North,5.8,-,N/A,,Overcast,10,2012-11-28 00:53:00
7:53 PM,39.0,30.9,73,30.36,10.0,North,3.5,-,N/A,,Overcast,360,2012-11-28 01:53:00
8:53 PM,37.9,30.9,76,30.36,10.0,NE,4.6,-,N/A,,Overcast,50,2012-11-28 02:53:00
9:53 PM,37.9,30.9,76,30.36,10.0,Calm,Calm,-,N/A,,Overcast,0,2012-11-28 03:53:00
10:30 PM,35.6,30.2,81,30.35,10.0,Calm,Calm,-,N/A,,Scattered Clouds,0,2012-11-28 04:30:00
10:53 PM,36.0,30.0,79,30.36,10.0,NE,3.5,-,N/A,,Clear,50,2012-11-28 04:53:00
11:36 PM,35.6,28.4,75,30.35,10.0,ENE,3.5,-,N/A,,Mostly Cloudy,70,2012-11-28 05:36:00
11:53 PM,36.0,30.0,79,30.36,10.0,NE,3.5,-,N/A,,Overcast,50,2012-11-28 05:53:00